Etusivu
METAR-TAF:

METAR-TAF

Lentoasemat :

San José del Cabo, Meksiko

Leveyspiiri: 23-09N, Pituuspiiri: 109-42W, korkeus merenpinnasta: 109 m

Tämänhetkinen sää

Tämä raportti tehtiin 1 tunti ja 39 minuuttia sitten, kello 03.43 UTC
Tuuli 6 kn lännestä/lounaasta
Lämpötila 20°C
Kosteus 18%
Ilmanpaine 1012 hPa
Näkyvyys: 19.3 km
Hajanaisia pilviä 25000 ft:n korkeudessa

METAR: MMSD 040343Z 24006KT 12SM SCT250 20/M05 A2989 RMK 8/008

Aika: 22:22 (05:22 UTC)

Sääennuste

Tämä raportti tehtiin 12 tuntia ja 29 minuuttia sitten, kello 16.53 UTC
Ennuste voimassa 03. päivästä klo 18 UTC - 04. päivään klo 18 UTC
Tuuli 10 kn kaakosta
Näkyvyys: 10 km
selkeää
From 04. päivästä klo 0400 UTC
Tuuli 6 kn pohjoisen/luoteesta
Näkyvyys: 10 km
Hajonneita pilviä 25000 ft:n korkeudessa
From 04. päivästä klo 1700 UTC
Tuuli 10 kn kaakosta
Näkyvyys: 10 km
Hajonneita pilviä 25000 ft:n korkeudessa

TAF: MMSD 031653Z 0318/0418 14010KT P6SM SKC FM040400 33006KT P6SM BKN250 FM041700 13010KT P6SM BKN250

Säähavainnot ja -ennusteet yli 4000 lentoasemalta (METAR- ja TAF-raportit).

Käytössä olevat sääasemat on merkitty karttaan keltaisilla ja punaisilla pisteillä.

Aseta hiiri pisteen päälle nähdäksesi sääaseman nimen.

Klikkaa sitten nähdäksesi säähavainnot ja -ennusteet.

Kartan vaihtaminen: klikkaa mustalla rastilla varustettuja vihreitä pisteitä, niin voit zoomata sisään; viivalla varustettua vihreää pistettä, niin voit zoomata ulos tai vihreitä nuolia, niin pääset viereisille kartoille.


METAR-TAF: